Date,TemperatureHighF,TemperatureAvgF,TemperatureLowF,DewpointHighF,DewpointAvgF,DewpointLowF,HumidityHigh,HumidityAvg,HumidityLow,PressureMaxIn,PressureMinIn,WindSpeedMaxMPH,WindSpeedAvgMPH,GustSpeedMaxMPH,PrecipitationSumIn
2013-1-1,38.3,32.7,19.8,30.3,18.6,5.5,78,57,38,30.34,30.11,24,12,36,0.00
2013-1-2,29.3,20.4,9.9,16.6,7.2,-4.8,66,56,43,30.51,30.29,22,10,30,0.00
2013-1-3,26.2,15.5,6.3,10.4,-1.1,-6.2,66,48,28,30.54,30.40,17,7,24,0.00
2013-1-4,38.1,32.3,22.1,28.0,22.6,10.6,78,67,57,30.40,30.20,29,14,39,0.00
2013-1-5,41.7,35.0,27.3,27.6,23.3,18.0,89,63,41,30.69,30.24,20,8,24,0.00
2013-1-6,44.2,36.6,27.5,34.5,30.1,23.3,99,78,54,30.64,30.34,23,7,29,0.00
2013-1-7,39.0,34.5,27.0,34.1,29.4,25.1,95,82,65,30.83,30.36,19,5,25,0.00
2013-1-8,46.8,40.8,35.4,36.5,32.2,28.0,98,72,52,30.79,30.66,30,12,36,0.00
2013-1-9,45.7,39.0,31.1,41.5,33.3,27.1,95,80,58,30.83,30.38,27,7,37,0.00
2013-1-10,47.5,42.6,35.2,30.7,26.7,24.0,69,53,43,30.95,30.41,30,11,41,0.13
2013-1-11,42.6,37.8,30.4,40.6,32.4,25.6,99,81,65,30.94,30.66,8,2,11,0.11
2013-1-12,46.8,43.2,40.3,46.2,43.0,40.0,99,99,96,30.66,30.54,8,2,13,0.02
2013-1-13,50.7,46.0,43.0,50.5,45.8,42.7,99,99,99,30.57,30.40,10,3,16,0.01
2013-1-14,63.5,50.7,42.4,55.6,44.4,30.0,99,81,47,30.67,30.27,19,6,24,0.00
2013-1-15,42.4,39.8,36.7,32.8,31.2,29.0,80,71,62,30.73,30.63,13,4,16,0.00
2013-1-16,39.9,39.9,39.9,31.6,31.6,31.6,72,72,72,30.68,30.68,1,1,3,0.00
2013-1-17,39.9,39.9,39.9,31.6,31.6,31.6,72,72,72,30.68,30.68,1,1,3,0.00
2013-1-18,39.9,39.9,39.9,31.6,31.6,31.6,72,72,72,30.68,30.68,1,1,3,0.00
2013-1-19,48.7,41.5,30.7,40.6,33.3,21.1,92,73,54,30.72,30.30,32,13,40,1.80
2013-1-20,53.4,43.0,29.7,42.0,31.3,11.0,93,66,35,30.32,29.91,43,17,54,1.42
2013-1-21,30.0,26.0,22.8,24.9,11.6,2.1,99,57,36,30.50,30.19,24,8,35,0.00
2013-1-22,27.0,22.0,14.7,26.3,13.3,-0.1,99,72,40,30.48,30.14,24,9,31,0.00
2013-1-23,16.3,11.5,6.4,4.0,-7.6,-15.9,65,42,23,30.55,30.46,24,10,32,0.00
2013-1-24,18.9,10.2,1.9,-5.9,-10.6,-14.8,55,38,25,30.60,30.45,31,13,38,0.43
2013-1-25,23.5,16.4,9.0,6.8,-6.0,-10.9,60,37,22,30.68,30.48,23,10,32,0.05
2013-1-26,24.6,18.4,14.5,15.1,6.1,-8.7,93,62,27,30.63,30.40,22,10,36,0.00
2013-1-27,31.3,21.4,14.7,5.0,-0.3,-7.7,63,40,22,30.89,30.62,21,11,30,0.06
2013-1-28,32.2,21.9,18.9,31.9,4.3,-5.3,99,49,32,30.87,30.43,8,3,12,0.00
2013-1-29,36.9,33.1,28.9,36.6,32.9,28.5,99,99,99,30.62,30.43,11,3,17,0.12
2013-1-30,56.5,45.1,36.9,56.2,44.8,36.6,99,99,99,30.58,30.00,17,5,25,0.05
2013-1-31,56.3,43.3,32.0,56.0,31.9,18.0,99,66,41,29.98,29.36,37,20,56,3.14
2013-2-1,33.6,29.4,23.0,20.6,11.8,5.1,67,48,32,30.48,29.98,31,14,40,0.04
2013-2-2,30.2,25.2,18.5,16.4,9.5,2.5,61,51,40,30.66,30.47,23,9,26,0.00
2013-2-3,28.0,26.3,23.9,27.1,16.8,-22.5,99,77,10,30.47,30.11,18,8,23,0.00
2013-2-4,30.9,26.0,22.3,14.9,4.8,-24.5,63,43,10,30.34,30.11,32,14,42,0.09
2013-2-5,33.1,25.3,21.6,18.5,5.1,-22.1,66,46,10,30.45,30.34,16,4,22,0.00
2013-2-6,38.7,31.7,26.6,25.2,-0.7,-22.4,65,31,10,30.71,30.33,21,6,28,0.04
2013-2-7,29.1,23.3,19.0,17.5,1.5,-6.6,66,39,22,30.96,30.69,16,6,23,0.00
2013-2-8,33.8,30.6,24.4,18.4,-16.5,-24.2,67,14,10,30.93,29.99,42,13,63,13.80
2013-2-9,24.4,19.8,16.7,10.6,-16.5,-30.3,58,25,10,30.57,29.92,43,22,64,17.48
2013-2-10,48.2,25.4,15.3,15.5,4.0,-25.1,59,42,10,30.81,30.56,18,5,28,0.00
2013-2-11,43.5,35.8,24.6,19.3,-5.4,-23.7,61,22,10,30.78,29.99,11,2,19,0.21
2013-2-12,45.9,39.7,35.8,31.8,14.7,-15.4,71,46,10,30.27,29.98,29,14,39,0.06
2013-2-13,46.9,37.3,32.2,30.6,22.0,-16.5,71,58,10,30.27,30.10,17,5,22,0.00
2013-2-14,47.3,38.5,34.2,30.1,19.9,-16.6,75,53,10,30.41,30.10,17,5,22,0.00
2013-2-15,50.4,41.1,35.4,38.9,3.0,-15.7,73,28,10,30.43,30.32,14,6,21,0.00
2013-2-16,37.6,34.9,32.2,22.8,-14.5,-17.5,65,12,10,30.36,30.11,20,6,30,0.01
2013-2-17,32.4,23.0,18.1,20.3,-7.2,-28.2,68,32,10,30.11,29.71,33,18,51,8.46
2013-2-18,32.7,23.9,15.4,3.0,-4.6,-18.3,52,31,10,30.55,30.01,33,16,45,2.02
2013-2-19,45.5,36.0,25.3,36.8,1.1,-11.3,74,28,10,30.56,29.96,19,6,27,0.30
2013-2-20,41.7,34.3,27.5,26.5,8.4,-15.5,69,41,10,30.16,29.91,30,15,42,0.05
2013-2-21,31.6,27.8,25.7,20.1,14.4,8.7,67,57,44,30.57,30.15,24,13,34,0.00
2013-2-22,39.6,33.1,27.5,25.6,17.2,-21.4,64,54,10,30.80,30.55,18,7,26,0.00
2013-2-23,40.8,37.3,35.1,22.7,-0.8,-15.5,58,25,10,30.76,30.35,8,2,16,0.12
2013-2-24,40.6,36.1,31.6,-11.6,-15.1,-18.6,10,10,10,30.36,30.10,21,10,29,0.91
2013-2-25,43.7,34.6,29.5,31.8,-9.8,-20.3,69,19,10,30.67,30.30,13,4,17,0.07
2013-2-26,46.4,38.1,30.7,34.1,3.5,-19.3,64,30,10,30.77,30.60,8,2,14,0.00
2013-2-27,43.0,41.1,39.2,-9.8,-11.2,-12.7,10,10,10,30.61,29.93,20,7,33,1.57
2013-2-28,45.5,38.6,34.9,-8.0,-13.2,-16.1,10,10,10,30.06,29.93,14,4,21,0.00
2013-3-1,41.0,37.5,35.1,23.2,-11.0,-16.0,50,13,10,30.09,29.93,17,7,26,0.01
2013-3-2,46.6,37.8,32.5,35.1,-1.6,-17.9,74,27,10,30.08,30.02,14,6,17,0.00
2013-3-3,40.6,36.2,32.4,-11.6,-15.1,-18.2,10,10,10,30.04,29.96,14,6,19,0.00
2013-3-4,40.5,34.8,32.0,28.9,4.2,-18.3,72,37,10,30.12,29.95,21,11,32,0.01
2013-3-5,43.0,37.6,32.5,25.2,1.9,-14.6,60,29,10,30.48,30.11,18,8,26,0.01
2013-3-6,41.4,38.7,36.0,19.9,-12.1,-15.4,43,11,10,30.55,30.46,27,12,38,0.60
2013-3-7,45.3,33.3,-35.9,-13.6,-17.3,-73.5,10,10,10,30.50,30.39,32,19,49,9.21
2013-3-8,43.2,35.9,31.3,30.1,-0.8,-18.9,63,28,10,30.55,30.33,33,17,49,1.09
2013-3-9,43.7,37.3,31.6,29.7,9.9,-18.7,65,38,10,30.78,30.55,24,9,32,0.00
2013-3-10,42.1,37.1,31.1,25.3,-9.0,-19.0,51,15,10,30.84,30.74,8,3,13,0.00
2013-3-11,50.2,41.2,36.3,-4.5,-11.2,-15.0,10,10,10,30.76,30.58,13,6,19,0.00
2013-3-12,49.5,45.4,41.5,-4.8,-8.0,-10.9,10,10,10,30.60,30.14,11,4,21,0.25
2013-3-13,53.4,46.0,39.6,38.8,14.4,-12.2,67,36,10,30.19,30.09,18,7,24,0.01
2013-3-14,39.4,33.7,23.7,27.1,19.4,6.0,70,56,44,30.22,30.08,26,11,35,0.35
2013-3-15,41.4,29.9,19.8,29.0,13.2,-0.9,70,50,24,30.26,30.03,24,13,36,0.54
2013-3-16,40.6,33.9,29.1,22.4,18.9,3.6,67,54,26,30.30,30.05,20,6,27,0.04
2013-3-17,36.5,31.9,26.2,19.4,12.2,0.5,67,45,25,30.75,30.29,20,8,29,0.00
2013-3-18,36.3,28.8,19.6,24.6,13.2,-17.9,69,52,10,30.88,30.69,17,4,27,0.00
2013-3-19,36.1,33.0,26.8,-15.1,-17.6,-22.5,10,10,10,30.69,29.98,24,11,34,1.26
2013-3-20,40.3,32.4,25.9,24.5,5.0,-23.1,64,39,10,30.22,30.07,30,14,41,0.09
2013-3-21,40.3,32.3,29.3,24.1,10.0,-20.0,67,47,10,30.23,30.01,11,4,14,0.00
2013-3-22,41.7,34.6,30.2,26.1,14.0,-19.7,63,47,10,30.12,29.99,19,7,24,0.00
2013-3-23,44.4,36.6,29.3,22.6,18.7,-1.9,65,49,24,30.16,30.01,34,14,44,0.18
2013-3-24,50.2,38.9,33.3,32.4,17.6,-17.1,64,47,10,30.22,30.14,16,6,24,0.00
2013-3-25,44.2,39.3,33.8,10.3,-11.6,-16.9,29,11,10,30.19,29.94,20,7,27,0.00
2013-3-26,52.2,41.5,35.4,31.5,12.9,-15.7,59,35,10,30.18,29.93,20,7,30,0.00
2013-3-27,54.5,43.8,34.9,32.9,21.3,-11.6,63,44,10,30.27,30.13,16,7,24,0.00
2013-3-28,48.7,42.5,38.3,33.9,6.6,-13.6,64,30,10,30.42,30.26,16,7,22,0.02
2013-3-29,54.7,46.1,39.7,38.1,18.1,-12.3,62,36,10,30.45,30.37,17,5,20,0.05
2013-3-30,56.1,45.9,37.9,35.4,15.1,-13.9,57,33,10,30.51,30.43,11,4,16,0.00
2013-3-31,54.5,45.2,34.0,37.4,17.1,-16.0,64,38,10,30.54,30.20,14,3,27,0.02
2013-4-1,57.4,46.5,36.7,45.1,7.7,-10.0,67,27,10,30.19,29.89,25,8,40,0.19
2013-4-2,40.1,35.6,31.6,20.3,15.4,9.5,62,44,30,30.34,30.19,32,17,45,1.19
2013-4-3,47.7,38.3,31.5,20.4,14.0,4.6,60,39,19,30.55,30.32,33,15,43,0.32
2013-4-4,54.3,41.1,32.4,39.4,22.5,10.2,68,48,25,30.70,30.46,18,9,29,0.00
2013-4-5,57.0,45.1,39.9,43.5,12.8,-12.2,70,35,10,30.46,30.04,20,8,30,0.00
2013-4-6,47.3,37.9,32.2,26.8,12.8,-16.0,68,38,10,30.77,30.27,23,9,35,0.17
2013-4-7,50.9,42.7,32.7,39.3,4.1,-17.9,67,27,10,30.77,30.41,16,6,30,0.00
2013-4-8,62.6,50.0,43.9,44.9,9.9,-9.1,65,26,10,30.55,30.34,14,5,19,0.00
2013-4-9,63.7,48.9,43.9,54.9,0.2,-9.1,77,17,10,30.53,30.27,19,4,21,0.07
2013-4-10,57.0,47.2,43.9,49.5,-5.7,-9.1,77,11,10,30.45,30.29,8,2,12,0.30
2013-4-11,48.7,44.9,43.0,31.3,-5.7,-9.8,61,13,10,30.57,30.25,13,4,17,0.12
2013-4-12,43.9,39.9,37.8,30.9,0.3,-13.9,60,24,10,30.61,30.19,18,7,25,0.53
2013-4-13,50.2,40.9,36.5,-4.7,-11.4,-14.8,10,10,10,30.35,30.15,21,6,30,0.02
2013-4-14,54.3,47.1,41.2,38.8,17.5,-11.2,67,38,10,30.63,30.32,20,6,26,0.00
2013-4-15,51.3,44.8,38.7,36.8,3.5,-13.2,68,24,10,30.83,30.62,12,5,16,0.00
2013-4-16,58.5,49.1,41.9,41.2,1.3,-10.6,53,16,10,30.84,30.46,16,7,26,0.00
2013-4-17,66.2,55.1,45.1,45.5,24.1,-7.2,68,36,10,30.76,30.45,18,6,24,0.00
2013-4-18,53.2,48.5,43.2,37.8,23.5,-9.7,65,42,10,30.88,30.58,13,4,21,0.00
2013-4-19,70.2,57.2,47.7,16.9,1.2,-6.2,13,10,10,30.59,30.09,16,8,30,0.00
2013-4-20,61.2,53.6,47.1,42.4,19.3,-6.2,63,33,10,30.61,30.02,23,10,31,0.18
2013-4-21,51.4,43.0,37.0,33.3,23.5,-13.6,68,48,10,31.11,30.61,21,6,27,0.00
2013-4-22,50.0,43.5,37.4,38.6,15.8,-14.1,71,40,10,31.22,31.03,14,6,21,0.00
2013-4-23,43.3,42.0,40.5,22.0,-9.5,-11.8,46,11,10,31.04,30.53,20,9,30,0.25
2013-4-24,60.4,50.4,43.2,3.5,-4.1,-9.7,10,10,10,30.53,30.22,27,10,35,0.12
2013-4-25,66.0,57.3,49.1,43.7,26.8,-5.1,65,37,10,30.69,30.24,23,8,29,0.04
2013-4-26,64.2,49.1,44.6,41.9,22.1,-8.6,69,43,10,30.86,30.68,14,6,19,0.04
2013-4-27,61.2,51.8,42.4,43.4,16.4,-10.2,66,31,10,30.85,30.73,7,2,13,0.00
2013-4-28,65.7,53.0,44.6,47.1,22.4,-8.6,67,38,10,30.78,30.67,11,3,18,0.00
2013-4-29,63.0,54.4,47.5,48.0,20.3,-6.3,67,34,10,30.71,30.64,10,4,20,0.00
2013-4-30,64.8,53.7,46.2,45.3,16.7,-7.3,67,27,10,30.81,30.68,8,3,11,0.00
2013-5-1,62.4,53.1,42.8,50.6,19.5,-10.1,77,36,10,30.92,30.81,7,2,11,0.00
2013-5-2,70.9,52.6,46.4,51.5,3.0,-7.2,64,16,10,30.92,30.81,17,4,24,0.00
2013-5-3,55.8,48.8,45.3,46.4,0.1,-8.0,75,17,10,30.96,30.80,17,6,24,0.02
2013-5-4,52.9,48.2,43.7,37.2,1.9,-9.3,55,18,10,30.81,30.75,12,4,17,0.00
2013-5-5,56.3,48.2,40.3,40.2,-1.9,-11.9,55,14,10,30.77,30.69,10,3,13,0.00
2013-5-6,55.2,48.3,42.3,-0.4,-5.7,-10.4,10,10,10,30.73,30.59,10,2,14,0.01
2013-5-7,69.4,57.5,47.5,54.6,5.9,-6.3,76,14,10,30.62,30.53,9,3,17,0.01
2013-5-8,62.8,57.0,52.3,5.3,1.0,-2.6,10,10,10,30.66,30.49,10,3,14,0.01
2013-5-9,64.9,56.8,53.6,7.1,0.8,-1.6,10,10,10,30.50,30.31,11,2,13,0.51
2013-5-10,55.2,53.9,53.6,-0.4,-1.4,-1.6,10,10,10,30.37,30.31,8,2,11,0.00
2013-5-11,53.8,53.8,53.8,-1.5,-1.5,-1.5,10,10,10,30.36,30.36,2,2,5,0.00
2013-5-12,53.8,53.8,53.8,-1.5,-1.5,-1.5,10,10,10,30.36,30.36,2,2,5,0.00
2013-5-13,53.8,53.8,53.8,-1.5,-1.5,-1.5,10,10,10,30.36,30.36,2,2,5,0.00
2013-5-14,53.8,53.8,53.8,-1.5,-1.5,-1.5,10,10,10,30.36,30.36,2,2,5,0.00
2013-5-15,53.8,53.8,53.8,-1.5,-1.5,-1.5,10,10,10,30.36,30.36,2,2,5,0.00
2013-5-16,53.8,53.8,53.8,-1.5,-1.5,-1.5,10,10,10,30.36,30.36,2,2,5,0.00
2013-5-17,63.0,56.3,53.8,47.7,17.7,-1.5,65,30,10,30.36,29.96,14,4,21,0.27
2013-5-18,68.0,57.3,49.8,55.4,12.4,-4.7,67,23,10,30.29,30.19,11,4,16,0.00
2013-5-19,63.0,54.6,51.3,5.4,-1.0,-3.6,10,10,10,30.35,30.22,14,4,17,0.07
2013-5-20,77.4,63.1,54.9,59.5,7.8,-0.6,54,12,10,30.23,29.89,8,2,12,0.17
2013-5-21,62.1,56.2,51.1,4.8,0.4,-3.6,10,10,10,30.02,29.88,17,5,23,0.05
2013-5-22,59.4,53.7,50.4,2.7,-1.5,-4.1,10,10,10,30.06,29.85,17,4,27,0.24
2013-5-23,69.3,58.3,52.7,10.3,2.0,-2.3,10,10,10,29.92,29.80,16,5,30,0.02
2013-5-24,66.6,61.0,52.5,8.3,4.1,-2.4,10,10,10,29.80,29.63,21,4,28,0.26
2013-5-25,52.5,49.5,43.3,-2.4,-4.8,-9.5,10,10,10,29.78,29.63,21,10,28,0.17
2013-5-26,58.8,49.3,41.0,44.5,16.3,-11.3,62,35,10,30.06,29.63,25,11,34,0.12
2013-5-27,72.9,57.9,46.8,51.8,22.3,-6.9,62,30,10,30.16,30.04,19,7,25,0.00
2013-5-28,68.4,59.2,48.0,51.6,20.4,-5.9,65,28,10,30.24,30.15,8,2,13,0.00
2013-5-29,68.2,58.6,55.9,9.2,2.3,0.2,10,10,10,30.18,29.97,9,3,16,0.40
2013-5-30,88.2,74.0,57.4,72.1,32.6,1.3,61,29,10,30.04,29.95,21,6,26,0.02
2013-5-31,85.8,76.8,70.2,71.7,33.6,11.1,65,28,10,30.05,29.89,11,4,14,0.00
2013-6-1,80.8,73.2,66.9,64.3,22.7,8.3,58,19,10,29.93,29.81,12,5,17,0.00
2013-6-2,72.9,67.5,63.7,13.0,9.1,6.1,10,10,10,29.85,29.70,14,9,22,0.02
2013-6-3,74.7,66.2,62.1,57.0,11.2,4.8,67,14,10,29.82,29.72,24,5,24,0.48
2013-6-4,71.4,63.6,54.9,52.4,44.2,-0.6,62,51,10,30.08,29.78,21,7,29,0.00
2013-6-5,68.4,61.8,55.9,50.7,33.1,3.5,61,40,10,30.17,30.07,12,4,16,0.00
2013-6-6,69.8,61.7,57.4,54.6,9.4,1.3,60,15,10,30.18,30.09,10,4,14,0.00
2013-6-7,57.9,56.2,54.3,1.7,0.3,-1.1,10,10,10,30.11,29.80,14,5,24,2.17
2013-6-8,74.3,61.9,54.7,41.2,5.9,-0.8,32,11,10,30.30,29.57,18,9,27,0.61
2013-6-9,77.4,67.0,60.1,62.4,18.5,3.4,67,20,10,30.47,30.30,9,2,14,0.00
2013-6-10,66.9,62.9,58.5,8.5,5.5,2.1,10,10,10,30.55,30.35,12,4,15,0.26
2013-6-11,61.3,57.0,54.5,4.3,1.0,-1.2,10,10,10,30.36,29.88,14,6,24,0.83
2013-6-12,69.8,62.4,55.4,45.1,11.2,-0.2,43,15,10,30.11,29.86,21,7,25,0.01
2013-6-13,72.7,60.4,54.1,61.1,7.6,-1.2,76,14,10,30.13,30.01,10,3,14,0.45
2013-6-14,71.6,60.1,53.1,58.2,13.9,-2.0,63,22,10,30.08,29.96,13,5,19,0.56
2013-6-15,77.9,67.2,59.7,58.6,32.3,3.1,77,35,10,30.24,30.07,14,4,21,0.00
2013-6-16,71.4,66.9,60.6,56.6,31.5,3.8,74,34,10,30.24,30.03,11,4,14,0.00
2013-6-17,82.2,68.7,62.6,66.8,16.9,5.3,63,17,10,30.22,30.07,17,4,25,0.11
2013-6-18,73.2,63.9,58.8,61.3,13.8,2.3,70,18,10,30.27,30.19,14,4,20,0.12
2013-6-19,75.4,63.7,56.8,59.1,24.8,0.9,62,30,10,30.47,30.22,15,5,22,0.13
2013-6-20,75.6,66.8,56.3,59.1,28.1,0.5,60,30,10,30.59,30.46,12,4,17,0.00
2013-6-21,81.9,70.2,62.8,69.9,22.6,5.4,71,23,10,30.57,30.50,12,6,17,0.00
2013-6-22,78.8,69.9,64.2,60.1,14.7,6.5,53,14,10,30.53,30.42,14,6,17,0.00
2013-6-23,81.1,71.3,64.4,19.5,12.0,6.7,10,10,10,30.47,30.28,11,6,18,0.00
2013-6-24,94.8,77.9,68.0,77.0,31.7,9.4,77,25,10,30.32,30.16,29,6,40,1.30
2013-6-25,86.0,77.2,68.4,66.1,24.7,9.7,52,17,10,30.21,30.02,13,5,17,0.00
2013-6-26,83.7,73.5,66.7,70.7,17.5,8.5,67,14,10,30.18,30.01,14,4,20,0.45
2013-6-27,71.2,67.6,63.7,11.0,9.1,5.9,10,10,10,30.20,30.09,9,4,13,0.09
2013-6-28,79.2,69.4,61.3,18.0,10.5,4.3,10,10,10,30.09,29.81,14,4,21,0.54
2013-6-29,79.9,72.0,66.9,18.5,12.5,8.5,10,10,10,30.03,29.83,11,5,19,0.19
2013-6-30,81.0,73.3,67.6,19.3,13.5,9.0,10,10,10,30.26,30.03,11,5,18,0.00
2013-7-1,80.4,72.0,68.2,18.9,12.5,9.6,10,10,10,30.40,30.24,15,3,20,0.26
2013-7-2,78.8,67.3,59.5,17.6,8.9,3.0,10,10,10,30.54,30.39,13,5,17,0.01
2013-7-3,88.0,70.5,59.5,23.0,11.4,3.0,10,10,10,30.53,30.42,19,4,24,0.00
2013-7-4,87.3,78.4,70.5,59.2,18.9,11.4,39,11,10,30.51,30.38,11,5,17,0.00
2013-7-5,89.1,81.4,76.1,43.5,20.3,15.5,21,10,10,30.46,30.32,14,6,20,0.00
2013-7-6,91.4,84.0,75.9,74.6,45.3,15.5,58,33,10,30.37,30.26,19,7,26,0.00
2013-7-7,91.0,81.2,74.7,72.7,48.8,14.5,56,37,10,30.32,30.20,11,3,15,0.00
2013-7-8,82.6,72.9,65.5,20.4,13.2,7.5,10,10,10,30.38,30.21,14,6,20,0.31
2013-7-9,72.0,67.5,65.5,12.5,9.0,7.5,10,10,10,30.44,30.35,11,4,13,0.08
2013-7-10,83.1,71.2,65.5,20.8,11.9,7.5,10,10,10,30.41,30.10,10,5,18,0.00
2013-7-11,80.4,74.7,70.3,18.8,14.5,11.2,10,10,10,30.24,30.07,16,4,21,0.04
2013-7-12,74.1,69.3,66.2,38.0,10.8,8.1,27,10,10,30.53,30.23,17,8,27,0.00
2013-7-13,77.7,69.4,65.5,16.9,10.5,7.5,10,10,10,30.65,30.53,9,4,12,0.00
2013-7-14,86.2,75.6,67.6,23.3,15.2,9.2,10,10,10,30.63,30.51,9,3,13,0.00
2013-7-15,90.0,81.2,73.0,71.2,31.4,13.3,54,21,10,30.51,30.40,8,3,11,0.00
2013-7-16,89.6,80.5,74.5,68.2,26.8,14.4,50,16,10,30.47,30.40,13,5,18,0.00
2013-7-17,88.2,79.6,72.0,68.8,23.8,12.3,53,15,10,30.50,30.27,12,4,20,0.00
2013-7-18,84.9,79.6,74.8,61.6,20.3,14.7,46,12,10,30.34,30.24,14,4,18,0.01
2013-7-19,92.5,82.3,73.6,70.4,27.6,13.7,50,16,10,30.25,30.00,21,6,27,0.01
2013-7-20,93.2,81.6,75.0,71.1,21.3,14.7,49,11,10,30.10,29.93,17,6,23,0.00
2013-7-21,81.1,74.9,69.6,51.1,17.2,10.7,42,12,10,30.32,30.10,10,4,15,0.00
2013-7-22,76.1,71.9,69.1,15.6,12.4,10.3,10,10,10,30.35,30.21,11,3,17,0.01
2013-7-23,81.9,71.2,69.1,19.9,11.9,10.3,10,10,10,30.21,29.84,15,3,17,0.32
2013-7-24,88.0,75.5,68.9,62.8,20.7,10.1,50,15,10,30.27,29.88,15,4,21,0.01
2013-7-25,68.9,63.1,60.8,10.1,5.7,3.9,10,10,10,30.43,30.27,17,8,24,0.18
2013-7-26,71.4,66.2,62.8,12.1,8.1,5.4,10,10,10,30.38,30.22,21,8,29,0.79
2013-7-27,83.7,71.8,64.8,21.3,12.4,7.0,10,10,10,30.37,30.29,13,5,15,0.01
2013-7-28,73.8,68.6,66.4,13.8,9.9,8.2,10,10,10,30.35,30.29,12,4,17,0.09
2013-7-29,80.6,70.5,66.0,19.1,11.3,7.9,10,10,10,30.37,30.28,11,3,17,0.00
2013-7-30,80.4,72.1,66.4,61.2,19.9,8.2,52,16,10,30.41,30.33,12,4,18,0.00
2013-7-31,78.3,71.9,65.7,59.6,24.2,7.5,56,21,10,30.45,30.35,11,4,14,0.05
2013-8-1,80.8,73.2,68.4,39.6,13.6,9.4,23,10,10,30.36,30.19,10,4,17,0.00
2013-8-2,81.7,72.8,66.4,63.8,19.0,7.8,55,15,10,30.20,30.09,24,4,30,0.14
2013-8-3,79.3,72.9,68.2,49.5,14.3,9.6,36,11,10,30.17,30.07,20,8,24,0.00
2013-8-4,81.5,71.5,64.4,64.7,32.2,6.7,58,30,10,30.19,30.06,10,4,16,0.00
2013-8-5,78.1,67.9,59.7,52.5,33.6,3.1,58,33,10,30.36,30.18,21,7,26,0.00
2013-8-6,79.2,68.3,58.8,63.0,42.7,3.1,62,44,10,30.48,30.36,7,2,11,0.00
2013-8-7,78.1,70.7,63.1,64.9,28.4,5.7,66,28,10,30.51,30.42,8,3,14,0.00
2013-8-8,77.0,71.0,68.0,16.2,11.8,9.0,10,10,10,30.45,30.31,11,5,15,0.05
2013-8-9,74.8,71.7,69.6,14.7,12.3,10.5,10,10,10,30.34,30.03,16,5,22,1.18
2013-8-10,122.5,76.0,68.5,68.7,41.2,10.8,65,37,10,30.32,30.08,46,6,46,0.00
2013-8-11,82.4,70.1,60.8,67.5,35.7,3.8,67,37,10,30.40,30.31,12,4,17,0.00
2013-8-12,84.9,71.4,64.8,69.8,29.8,6.7,66,29,10,30.34,30.23,8,2,13,0.00
2013-8-13,78.4,70.0,66.7,17.4,11.0,8.2,10,10,10,30.24,29.98,5,2,9,0.12
2013-8-14,67.5,67.4,64.4,56.4,12.9,9.0,68,15,10,30.27,29.96,10,1,17,0.12
2013-8-15,79.7,68.5,62.8,66.0,45.1,5.7,70,49,10,30.42,30.26,17,6,22,0.00
2013-8-16,71.8,68.1,61.3,61.7,36.7,4.3,71,43,10,30.50,30.41,13,8,127,0.00
2013-8-17,77.4,69.8,61.7,66.4,41.2,4.6,74,47,10,30.61,30.50,13,5,17,0.00
2013-8-18,77.4,69.0,62.8,68.5,21.8,5.4,74,22,10,30.60,30.39,8,2,11,0.00
2013-8-19,82.4,73.1,63.7,69.3,43.0,6.1,74,45,10,30.40,30.24,17,6,21,0.00
2013-8-20,85.6,74.5,68.2,72.7,42.4,9.6,74,41,10,30.40,30.27,10,3,12,0.00
2013-8-21,83.5,74.4,67.3,73.7,28.4,8.9,76,27,10,30.45,30.32,8,3,11,0.01
2013-8-22,81.5,72.0,66.9,72.5,14.6,8.6,74,12,10,30.34,30.12,14,5,18,0.00
2013-8-23,79.9,72.1,64.0,67.4,35.4,6.3,77,37,10,30.44,30.11,17,6,23,0.00
2013-8-24,78.3,66.7,59.9,61.6,42.0,3.1,76,48,10,30.65,30.44,13,5,18,0.01
2013-8-25,80.4,70.1,60.1,67.6,57.4,37.1,80,65,42,30.68,30.50,8,3,12,0.00